sensor_id;sensor_type;location;lat;lon;timestamp;temperature;humidity
11532;DHT22;5822;51.000;5.874;2022-11-18T00:02:13;13.00;99.90
11532;DHT22;5822;51.000;5.874;2022-11-18T00:04:38;13.00;99.90
11532;DHT22;5822;51.000;5.874;2022-11-18T00:07:04;13.00;99.90
11532;DHT22;5822;51.000;5.874;2022-11-18T00:09:29;13.00;99.90
11532;DHT22;5822;51.000;5.874;2022-11-18T00:11:55;13.00;99.90
11532;DHT22;5822;51.000;5.874;2022-11-18T00:14:39;13.00;99.90
11532;DHT22;5822;51.000;5.874;2022-11-18T00:17:06;13.00;99.90
11532;DHT22;5822;51.000;5.874;2022-11-18T00:19:40;13.00;99.90
11532;DHT22;5822;51.000;5.874;2022-11-18T00:22:08;13.00;99.90
11532;DHT22;5822;51.000;5.874;2022-11-18T00:24:35;13.00;99.90
11532;DHT22;5822;51.000;5.874;2022-11-18T00:27:01;13.00;99.90
11532;DHT22;5822;51.000;5.874;2022-11-18T00:29:26;13.00;99.90
11532;DHT22;5822;51.000;5.874;2022-11-18T00:31:56;13.00;99.90
11532;DHT22;5822;51.000;5.874;2022-11-18T00:34:22;13.00;99.90
11532;DHT22;5822;51.000;5.874;2022-11-18T00:36:48;13.00;99.90
11532;DHT22;5822;51.000;5.874;2022-11-18T00:39:16;13.00;99.90
11532;DHT22;5822;51.000;5.874;2022-11-18T00:41:43;13.00;99.90
11532;DHT22;5822;51.000;5.874;2022-11-18T00:44:27;13.00;99.90
11532;DHT22;5822;51.000;5.874;2022-11-18T00:46:53;13.00;99.90
11532;DHT22;5822;51.000;5.874;2022-11-18T00:49:18;13.10;99.90
11532;DHT22;5822;51.000;5.874;2022-11-18T00:51:44;13.10;99.90
11532;DHT22;5822;51.000;5.874;2022-11-18T00:54:09;13.00;99.90
11532;DHT22;5822;51.000;5.874;2022-11-18T00:56:35;13.00;99.90
11532;DHT22;5822;51.000;5.874;2022-11-18T00:59:01;13.00;99.90
11532;DHT22;5822;51.000;5.874;2022-11-18T01:01:26;13.00;99.90
11532;DHT22;5822;51.000;5.874;2022-11-18T01:03:52;13.00;99.90
11532;DHT22;5822;51.000;5.874;2022-11-18T01:06:18;12.90;99.90
11532;DHT22;5822;51.000;5.874;2022-11-18T01:08:43;12.90;99.90
11532;DHT22;5822;51.000;5.874;2022-11-18T01:11:09;12.90;99.90
11532;DHT22;5822;51.000;5.874;2022-11-18T01:13:53;12.90;99.90
11532;DHT22;5822;51.000;5.874;2022-11-18T01:16:21;12.80;99.90
11532;DHT22;5822;51.000;5.874;2022-11-18T01:18:48;12.80;99.90
11532;DHT22;5822;51.000;5.874;2022-11-18T01:21:13;12.80;99.90
11532;DHT22;5822;51.000;5.874;2022-11-18T01:23:39;12.90;99.90
11532;DHT22;5822;51.000;5.874;2022-11-18T01:26:07;12.80;99.90
11532;DHT22;5822;51.000;5.874;2022-11-18T01:28:33;12.90;99.90
11532;DHT22;5822;51.000;5.874;2022-11-18T01:31:04;12.90;99.90
11532;DHT22;5822;51.000;5.874;2022-11-18T01:33:30;12.80;99.90
11532;DHT22;5822;51.000;5.874;2022-11-18T01:35:56;12.80;99.90
11532;DHT22;5822;51.000;5.874;2022-11-18T01:38:21;12.80;99.90
11532;DHT22;5822;51.000;5.874;2022-11-18T01:40:47;12.70;99.90
11532;DHT22;5822;51.000;5.874;2022-11-18T01:43:16;12.70;99.90
11532;DHT22;5822;51.000;5.874;2022-11-18T01:45:43;12.80;99.90
11532;DHT22;5822;51.000;5.874;2022-11-18T01:48:13;12.80;99.90
11532;DHT22;5822;51.000;5.874;2022-11-18T01:50:51;12.70;99.90
11532;DHT22;5822;51.000;5.874;2022-11-18T01:53:22;12.70;99.90
11532;DHT22;5822;51.000;5.874;2022-11-18T01:55:51;12.70;99.90
11532;DHT22;5822;51.000;5.874;2022-11-18T01:58:31;12.70;99.90
11532;DHT22;5822;51.000;5.874;2022-11-18T02:00:58;12.60;99.90
11532;DHT22;5822;51.000;5.874;2022-11-18T02:03:24;12.60;99.90
11532;DHT22;5822;51.000;5.874;2022-11-18T02:05:51;12.60;99.90
11532;DHT22;5822;51.000;5.874;2022-11-18T02:08:18;12.70;99.90
11532;DHT22;5822;51.000;5.874;2022-11-18T02:10:45;12.60;99.90
11532;DHT22;5822;51.000;5.874;2022-11-18T02:13:11;12.50;99.90
11532;DHT22;5822;51.000;5.874;2022-11-18T02:15:54;12.60;99.90
11532;DHT22;5822;51.000;5.874;2022-11-18T02:18:35;12.60;99.90
11532;DHT22;5822;51.000;5.874;2022-11-18T02:21:18;12.60;99.90
11532;DHT22;5822;51.000;5.874;2022-11-18T02:29:15;12.60;99.90
11532;DHT22;5822;51.000;5.874;2022-11-18T02:34:39;12.60;99.90
11532;DHT22;5822;51.000;5.874;2022-11-18T02:37:43;12.50;99.90
11532;DHT22;5822;51.000;5.874;2022-11-18T02:40:31;12.50;99.90
11532;DHT22;5822;51.000;5.874;2022-11-18T02:43:07;12.60;99.90
11532;DHT22;5822;51.000;5.874;2022-11-18T02:45:36;12.60;99.90
11532;DHT22;5822;51.000;5.874;2022-11-18T02:48:06;12.70;99.90
11532;DHT22;5822;51.000;5.874;2022-11-18T02:50:34;12.80;99.90
11532;DHT22;5822;51.000;5.874;2022-11-18T02:53:04;12.70;99.90
11532;DHT22;5822;51.000;5.874;2022-11-18T02:55:33;12.60;99.90
11532;DHT22;5822;51.000;5.874;2022-11-18T02:58:01;12.70;99.90
11532;DHT22;5822;51.000;5.874;2022-11-18T03:00:27;12.70;99.90
11532;DHT22;5822;51.000;5.874;2022-11-18T03:02:52;12.70;99.90
11532;DHT22;5822;51.000;5.874;2022-11-18T03:05:31;12.70;99.90
11532;DHT22;5822;51.000;5.874;2022-11-18T03:08:07;12.60;99.90
11532;DHT22;5822;51.000;5.874;2022-11-18T03:10:41;12.70;99.90
11532;DHT22;5822;51.000;5.874;2022-11-18T03:13:33;12.60;99.90
11532;DHT22;5822;51.000;5.874;2022-11-18T03:16:05;12.50;99.90
11532;DHT22;5822;51.000;5.874;2022-11-18T03:18:52;12.60;99.90
11532;DHT22;5822;51.000;5.874;2022-11-18T03:21:31;12.60;99.90
11532;DHT22;5822;51.000;5.874;2022-11-18T03:24:09;12.60;99.90
11532;DHT22;5822;51.000;5.874;2022-11-18T03:26:38;12.50;99.90
11532;DHT22;5822;51.000;5.874;2022-11-18T03:29:12;12.60;99.90
11532;DHT22;5822;51.000;5.874;2022-11-18T03:31:44;12.50;99.90
11532;DHT22;5822;51.000;5.874;2022-11-18T03:34:27;12.50;99.90
11532;DHT22;5822;51.000;5.874;2022-11-18T03:36:57;12.60;99.90
11532;DHT22;5822;51.000;5.874;2022-11-18T03:39:30;12.50;99.90
11532;DHT22;5822;51.000;5.874;2022-11-18T03:42:09;12.40;99.90
11532;DHT22;5822;51.000;5.874;2022-11-18T03:44:40;12.50;99.90
11532;DHT22;5822;51.000;5.874;2022-11-18T03:47:13;12.50;99.90
11532;DHT22;5822;51.000;5.874;2022-11-18T03:49:45;12.50;99.90
11532;DHT22;5822;51.000;5.874;2022-11-18T03:52:18;12.50;99.90
11532;DHT22;5822;51.000;5.874;2022-11-18T03:54:47;12.40;99.90
11532;DHT22;5822;51.000;5.874;2022-11-18T03:57:19;12.40;99.90
11532;DHT22;5822;51.000;5.874;2022-11-18T04:00:06;12.40;99.90
11532;DHT22;5822;51.000;5.874;2022-11-18T04:02:33;12.40;99.90
11532;DHT22;5822;51.000;5.874;2022-11-18T04:04:59;12.40;99.90
11532;DHT22;5822;51.000;5.874;2022-11-18T04:11:02;12.40;99.90
11532;DHT22;5822;51.000;5.874;2022-11-18T04:13:05;12.40;99.90
11532;DHT22;5822;51.000;5.874;2022-11-18T04:15:31;12.40;99.90
11532;DHT22;5822;51.000;5.874;2022-11-18T04:17:58;12.50;99.90
11532;DHT22;5822;51.000;5.874;2022-11-18T04:20:24;12.40;99.90
11532;DHT22;5822;51.000;5.874;2022-11-18T04:22:51;12.40;99.90
11532;DHT22;5822;51.000;5.874;2022-11-18T04:25:16;12.40;99.90
11532;DHT22;5822;51.000;5.874;2022-11-18T04:27:42;12.50;99.90
11532;DHT22;5822;51.000;5.874;2022-11-18T04:30:08;12.40;99.90
11532;DHT22;5822;51.000;5.874;2022-11-18T04:32:34;12.40;99.90
11532;DHT22;5822;51.000;5.874;2022-11-18T04:35:00;12.40;99.90
11532;DHT22;5822;51.000;5.874;2022-11-18T04:37:25;12.40;99.90
11532;DHT22;5822;51.000;5.874;2022-11-18T04:39:51;12.50;99.90
11532;DHT22;5822;51.000;5.874;2022-11-18T04:42:17;12.40;99.90
11532;DHT22;5822;51.000;5.874;2022-11-18T04:44:42;12.40;99.90
11532;DHT22;5822;51.000;5.874;2022-11-18T04:47:09;12.50;99.90
11532;DHT22;5822;51.000;5.874;2022-11-18T04:49:35;12.50;99.90
11532;DHT22;5822;51.000;5.874;2022-11-18T04:52:01;12.60;99.90
11532;DHT22;5822;51.000;5.874;2022-11-18T04:54:27;12.50;99.90
11532;DHT22;5822;51.000;5.874;2022-11-18T04:56:53;12.60;99.90
11532;DHT22;5822;51.000;5.874;2022-11-18T04:59:24;12.50;99.90
11532;DHT22;5822;51.000;5.874;2022-11-18T05:01:51;12.40;99.90
11532;DHT22;5822;51.000;5.874;2022-11-18T05:04:21;12.40;99.90
11532;DHT22;5822;51.000;5.874;2022-11-18T05:06:47;12.40;99.90
11532;DHT22;5822;51.000;5.874;2022-11-18T05:09:13;12.50;99.90
11532;DHT22;5822;51.000;5.874;2022-11-18T05:11:39;12.50;99.90
11532;DHT22;5822;51.000;5.874;2022-11-18T05:14:25;12.50;99.90
11532;DHT22;5822;51.000;5.874;2022-11-18T05:16:52;12.40;99.90
11532;DHT22;5822;51.000;5.874;2022-11-18T05:19:18;12.40;99.90
11532;DHT22;5822;51.000;5.874;2022-11-18T05:21:43;12.40;99.90
11532;DHT22;5822;51.000;5.874;2022-11-18T05:24:09;12.50;99.90
11532;DHT22;5822;51.000;5.874;2022-11-18T05:26:35;12.40;99.90
11532;DHT22;5822;51.000;5.874;2022-11-18T05:29:00;12.40;99.90
11532;DHT22;5822;51.000;5.874;2022-11-18T05:31:26;12.40;99.90
11532;DHT22;5822;51.000;5.874;2022-11-18T05:33:52;12.40;99.90
11532;DHT22;5822;51.000;5.874;2022-11-18T05:36:19;12.50;99.90
11532;DHT22;5822;51.000;5.874;2022-11-18T05:38:46;12.40;99.90
11532;DHT22;5822;51.000;5.874;2022-11-18T05:41:12;12.30;99.90
11532;DHT22;5822;51.000;5.874;2022-11-18T05:44:01;12.30;99.90
11532;DHT22;5822;51.000;5.874;2022-11-18T05:46:28;12.30;99.90
11532;DHT22;5822;51.000;5.874;2022-11-18T05:48:54;12.30;99.90
11532;DHT22;5822;51.000;5.874;2022-11-18T05:51:20;12.40;99.90
11532;DHT22;5822;51.000;5.874;2022-11-18T05:53:48;12.30;99.90
11532;DHT22;5822;51.000;5.874;2022-11-18T05:56:27;12.30;99.90
11532;DHT22;5822;51.000;5.874;2022-11-18T05:58:53;12.30;99.90
11532;DHT22;5822;51.000;5.874;2022-11-18T06:01:23;12.20;99.90
11532;DHT22;5822;51.000;5.874;2022-11-18T06:03:52;12.10;99.90
11532;DHT22;5822;51.000;5.874;2022-11-18T06:06:19;12.00;99.90
11532;DHT22;5822;51.000;5.874;2022-11-18T06:08:55;12.00;99.90
11532;DHT22;5822;51.000;5.874;2022-11-18T06:11:21;12.00;99.90
11532;DHT22;5822;51.000;5.874;2022-11-18T06:13:54;12.10;99.90
11532;DHT22;5822;51.000;5.874;2022-11-18T06:16:25;12.00;99.90
11532;DHT22;5822;51.000;5.874;2022-11-18T06:18:52;12.00;99.90
11532;DHT22;5822;51.000;5.874;2022-11-18T06:21:18;12.00;99.90
11532;DHT22;5822;51.000;5.874;2022-11-18T06:23:44;11.90;99.90
11532;DHT22;5822;51.000;5.874;2022-11-18T06:26:13;12.00;99.90
11532;DHT22;5822;51.000;5.874;2022-11-18T06:28:41;11.90;99.90
11532;DHT22;5822;51.000;5.874;2022-11-18T06:31:08;11.90;99.90
11532;DHT22;5822;51.000;5.874;2022-11-18T06:33:33;11.80;99.90
11532;DHT22;5822;51.000;5.874;2022-11-18T06:35:59;11.80;99.90
11532;DHT22;5822;51.000;5.874;2022-11-18T06:38:25;11.90;99.90
11532;DHT22;5822;51.000;5.874;2022-11-18T06:40:50;11.80;99.90
11532;DHT22;5822;51.000;5.874;2022-11-18T06:43:16;11.80;99.90
11532;DHT22;5822;51.000;5.874;2022-11-18T06:46:02;11.80;99.90
11532;DHT22;5822;51.000;5.874;2022-11-18T06:48:47;11.80;99.90
11532;DHT22;5822;51.000;5.874;2022-11-18T06:51:13;11.80;99.90
11532;DHT22;5822;51.000;5.874;2022-11-18T06:53:38;11.70;99.90
11532;DHT22;5822;51.000;5.874;2022-11-18T06:56:06;11.70;99.90
11532;DHT22;5822;51.000;5.874;2022-11-18T06:58:32;11.70;99.90
11532;DHT22;5822;51.000;5.874;2022-11-18T07:01:11;11.70;99.90
11532;DHT22;5822;51.000;5.874;2022-11-18T07:03:39;11.80;99.90
11532;DHT22;5822;51.000;5.874;2022-11-18T07:06:05;11.70;99.90
11532;DHT22;5822;51.000;5.874;2022-11-18T07:08:33;11.80;99.90
11532;DHT22;5822;51.000;5.874;2022-11-18T07:11:00;11.70;99.90
11532;DHT22;5822;51.000;5.874;2022-11-18T07:13:26;11.70;99.90
11532;DHT22;5822;51.000;5.874;2022-11-18T07:15:51;11.70;99.90
11532;DHT22;5822;51.000;5.874;2022-11-18T07:18:17;11.70;99.90
11532;DHT22;5822;51.000;5.874;2022-11-18T07:20:42;11.70;99.90
11532;DHT22;5822;51.000;5.874;2022-11-18T07:23:08;11.70;99.90
11532;DHT22;5822;51.000;5.874;2022-11-18T07:25:33;11.70;99.90
11532;DHT22;5822;51.000;5.874;2022-11-18T07:27:59;11.70;99.90
11532;DHT22;5822;51.000;5.874;2022-11-18T07:30:25;11.80;99.90
11532;DHT22;5822;51.000;5.874;2022-11-18T07:32:50;11.70;99.90
11532;DHT22;5822;51.000;5.874;2022-11-18T07:35:16;11.70;99.90
11532;DHT22;5822;51.000;5.874;2022-11-18T07:37:43;11.70;99.90
11532;DHT22;5822;51.000;5.874;2022-11-18T07:40:09;11.70;99.90
11532;DHT22;5822;51.000;5.874;2022-11-18T07:42:35;11.70;99.90
11532;DHT22;5822;51.000;5.874;2022-11-18T07:45:09;11.70;99.90
11532;DHT22;5822;51.000;5.874;2022-11-18T07:47:35;11.70;99.90
11532;DHT22;5822;51.000;5.874;2022-11-18T07:50:01;11.60;99.90
11532;DHT22;5822;51.000;5.874;2022-11-18T07:52:27;11.70;99.90
11532;DHT22;5822;51.000;5.874;2022-11-18T07:54:52;11.70;99.90
11532;DHT22;5822;51.000;5.874;2022-11-18T07:57:18;11.80;99.90
11532;DHT22;5822;51.000;5.874;2022-11-18T07:59:43;11.80;99.90
11532;DHT22;5822;51.000;5.874;2022-11-18T08:02:12;11.70;99.90
11532;DHT22;5822;51.000;5.874;2022-11-18T08:04:38;11.70;99.90
11532;DHT22;5822;51.000;5.874;2022-11-18T08:07:04;11.80;99.90
11532;DHT22;5822;51.000;5.874;2022-11-18T08:09:33;11.80;99.90
11532;DHT22;5822;51.000;5.874;2022-11-18T08:11:58;11.80;99.90
11532;DHT22;5822;51.000;5.874;2022-11-18T08:14:24;11.80;99.90
11532;DHT22;5822;51.000;5.874;2022-11-18T08:17:03;11.80;99.90
11532;DHT22;5822;51.000;5.874;2022-11-18T08:19:28;11.80;99.90
11532;DHT22;5822;51.000;5.874;2022-11-18T08:21:54;11.80;99.90
11532;DHT22;5822;51.000;5.874;2022-11-18T08:24:20;11.80;99.90
11532;DHT22;5822;51.000;5.874;2022-11-18T08:26:45;11.90;99.90
11532;DHT22;5822;51.000;5.874;2022-11-18T08:29:11;12.00;99.90
11532;DHT22;5822;51.000;5.874;2022-11-18T08:31:37;12.00;99.90
11532;DHT22;5822;51.000;5.874;2022-11-18T08:34:23;12.00;99.90
11532;DHT22;5822;51.000;5.874;2022-11-18T08:36:48;12.00;99.90
11532;DHT22;5822;51.000;5.874;2022-11-18T08:39:14;11.90;99.90
11532;DHT22;5822;51.000;5.874;2022-11-18T08:41:42;11.90;99.90
11532;DHT22;5822;51.000;5.874;2022-11-18T08:44:11;11.90;99.90
11532;DHT22;5822;51.000;5.874;2022-11-18T08:46:37;12.00;99.90
11532;DHT22;5822;51.000;5.874;2022-11-18T08:49:03;11.90;99.90
11532;DHT22;5822;51.000;5.874;2022-11-18T08:51:29;12.00;99.90
11532;DHT22;5822;51.000;5.874;2022-11-18T08:53:55;12.10;99.90
11532;DHT22;5822;51.000;5.874;2022-11-18T08:56:22;12.10;99.90
11532;DHT22;5822;51.000;5.874;2022-11-18T08:58:49;12.10;99.90
11532;DHT22;5822;51.000;5.874;2022-11-18T09:01:14;12.10;99.90
11532;DHT22;5822;51.000;5.874;2022-11-18T09:03:40;12.10;99.90
11532;DHT22;5822;51.000;5.874;2022-11-18T09:06:17;12.10;99.90
11532;DHT22;5822;51.000;5.874;2022-11-18T09:08:44;12.10;99.90
11532;DHT22;5822;51.000;5.874;2022-11-18T09:11:15;12.10;99.90
11532;DHT22;5822;51.000;5.874;2022-11-18T09:13:41;12.10;99.90
11532;DHT22;5822;51.000;5.874;2022-11-18T09:16:07;12.20;99.90
11532;DHT22;5822;51.000;5.874;2022-11-18T09:18:33;12.20;99.90
11532;DHT22;5822;51.000;5.874;2022-11-18T09:21:02;12.20;99.90
11532;DHT22;5822;51.000;5.874;2022-11-18T09:23:29;12.20;99.90
11532;DHT22;5822;51.000;5.874;2022-11-18T09:26:04;12.20;99.90
11532;DHT22;5822;51.000;5.874;2022-11-18T09:28:30;12.20;99.90
11532;DHT22;5822;51.000;5.874;2022-11-18T09:30:55;12.30;99.90
11532;DHT22;5822;51.000;5.874;2022-11-18T09:33:22;12.30;99.90
11532;DHT22;5822;51.000;5.874;2022-11-18T09:35:48;12.40;99.90
11532;DHT22;5822;51.000;5.874;2022-11-18T09:38:14;12.30;99.90
11532;DHT22;5822;51.000;5.874;2022-11-18T09:41:04;12.30;99.90
11532;DHT22;5822;51.000;5.874;2022-11-18T09:46:55;12.40;99.90
11532;DHT22;5822;51.000;5.874;2022-11-18T09:49:29;12.50;99.90
11532;DHT22;5822;51.000;5.874;2022-11-18T09:51:56;12.50;99.90
11532;DHT22;5822;51.000;5.874;2022-11-18T09:54:32;12.50;99.90
11532;DHT22;5822;51.000;5.874;2022-11-18T09:56:58;12.50;99.90
11532;DHT22;5822;51.000;5.874;2022-11-18T09:59:29;12.60;99.90
11532;DHT22;5822;51.000;5.874;2022-11-18T10:02:02;12.60;99.90
11532;DHT22;5822;51.000;5.874;2022-11-18T10:04:28;12.70;99.90
11532;DHT22;5822;51.000;5.874;2022-11-18T10:06:54;12.70;99.90
11532;DHT22;5822;51.000;5.874;2022-11-18T10:09:27;12.60;99.90
11532;DHT22;5822;51.000;5.874;2022-11-18T10:12:11;12.70;99.90
11532;DHT22;5822;51.000;5.874;2022-11-18T10:15:01;12.60;99.90
11532;DHT22;5822;51.000;5.874;2022-11-18T10:17:43;12.60;99.90
11532;DHT22;5822;51.000;5.874;2022-11-18T10:25:34;12.60;99.90
11532;DHT22;5822;51.000;5.874;2022-11-18T10:30:48;12.60;99.90
11532;DHT22;5822;51.000;5.874;2022-11-18T10:35:44;12.50;99.90
11532;DHT22;5822;51.000;5.874;2022-11-18T10:46:34;12.60;99.90
11532;DHT22;5822;51.000;5.874;2022-11-18T10:54:27;12.80;99.90
11532;DHT22;5822;51.000;5.874;2022-11-18T10:57:05;12.80;99.90
11532;DHT22;5822;51.000;5.874;2022-11-18T10:59:38;12.90;99.90
11532;DHT22;5822;51.000;5.874;2022-11-18T11:04:49;13.00;99.90
11532;DHT22;5822;51.000;5.874;2022-11-18T11:12:55;13.20;99.90
11532;DHT22;5822;51.000;5.874;2022-11-18T11:15:33;13.30;99.90
11532;DHT22;5822;51.000;5.874;2022-11-18T11:18:05;13.30;99.90
11532;DHT22;5822;51.000;5.874;2022-11-18T11:20:53;13.30;99.90
11532;DHT22;5822;51.000;5.874;2022-11-18T11:23:19;13.20;99.90
11532;DHT22;5822;51.000;5.874;2022-11-18T11:26:22;13.20;99.90
11532;DHT22;5822;51.000;5.874;2022-11-18T11:29:17;13.20;99.90
11532;DHT22;5822;51.000;5.874;2022-11-18T11:35:18;13.20;99.90
11532;DHT22;5822;51.000;5.874;2022-11-18T11:43:23;13.10;99.90
11532;DHT22;5822;51.000;5.874;2022-11-18T11:51:02;13.20;99.90
11532;DHT22;5822;51.000;5.874;2022-11-18T11:56:32;13.20;99.90
11532;DHT22;5822;51.000;5.874;2022-11-18T11:59:18;13.10;99.90
11532;DHT22;5822;51.000;5.874;2022-11-18T12:04:52;13.30;99.90
11532;DHT22;5822;51.000;5.874;2022-11-18T12:07:20;13.30;99.90
11532;DHT22;5822;51.000;5.874;2022-11-18T12:20:48;13.40;99.90
11532;DHT22;5822;51.000;5.874;2022-11-18T12:23:18;13.40;99.90
11532;DHT22;5822;51.000;5.874;2022-11-18T12:38:53;13.50;99.90
11532;DHT22;5822;51.000;5.874;2022-11-18T12:44:24;13.50;99.90
11532;DHT22;5822;51.000;5.874;2022-11-18T12:46:52;13.60;99.90
11532;DHT22;5822;51.000;5.874;2022-11-18T12:52:00;13.60;99.90
11532;DHT22;5822;51.000;5.874;2022-11-18T12:56:58;13.50;99.90
11532;DHT22;5822;51.000;5.874;2022-11-18T12:59:30;13.50;99.90
11532;DHT22;5822;51.000;5.874;2022-11-18T13:02:19;13.50;99.90
11532;DHT22;5822;51.000;5.874;2022-11-18T13:05:10;13.60;99.90
11532;DHT22;5822;51.000;5.874;2022-11-18T13:07:47;13.60;99.90
11532;DHT22;5822;51.000;5.874;2022-11-18T13:10:34;13.60;99.90
11532;DHT22;5822;51.000;5.874;2022-11-18T13:13:02;13.60;99.90
11532;DHT22;5822;51.000;5.874;2022-11-18T13:15:28;13.60;99.90
11532;DHT22;5822;51.000;5.874;2022-11-18T13:18:18;13.60;99.90
11532;DHT22;5822;51.000;5.874;2022-11-18T13:20:58;13.70;99.90
11532;DHT22;5822;51.000;5.874;2022-11-18T13:23:44;13.70;99.90
11532;DHT22;5822;51.000;5.874;2022-11-18T13:26:29;13.70;99.90
11532;DHT22;5822;51.000;5.874;2022-11-18T13:34:31;13.80;99.90
11532;DHT22;5822;51.000;5.874;2022-11-18T13:37:15;13.90;99.90
11532;DHT22;5822;51.000;5.874;2022-11-18T13:39:42;13.90;99.90
11532;DHT22;5822;51.000;5.874;2022-11-18T13:42:21;13.90;99.90
11532;DHT22;5822;51.000;5.874;2022-11-18T13:44:55;14.00;99.90
11532;DHT22;5822;51.000;5.874;2022-11-18T13:47:39;14.00;99.90
11532;DHT22;5822;51.000;5.874;2022-11-18T13:52:39;13.90;99.90
11532;DHT22;5822;51.000;5.874;2022-11-18T13:55:27;13.90;99.90
11532;DHT22;5822;51.000;5.874;2022-11-18T13:58:05;13.90;99.90
11532;DHT22;5822;51.000;5.874;2022-11-18T14:00:36;13.80;99.90
11532;DHT22;5822;51.000;5.874;2022-11-18T14:03:22;13.80;99.90
11532;DHT22;5822;51.000;5.874;2022-11-18T14:05:55;13.80;99.90
11532;DHT22;5822;51.000;5.874;2022-11-18T14:08:32;13.90;99.90
11532;DHT22;5822;51.000;5.874;2022-11-18T14:10:59;13.90;99.90
11532;DHT22;5822;51.000;5.874;2022-11-18T14:13:36;13.90;99.90
11532;DHT22;5822;51.000;5.874;2022-11-18T14:18:48;14.00;99.90
11532;DHT22;5822;51.000;5.874;2022-11-18T14:21:29;13.90;99.90
11532;DHT22;5822;51.000;5.874;2022-11-18T14:23:55;13.80;99.90
11532;DHT22;5822;51.000;5.874;2022-11-18T14:26:33;13.80;99.90
11532;DHT22;5822;51.000;5.874;2022-11-18T14:29:14;13.90;99.90
11532;DHT22;5822;51.000;5.874;2022-11-18T14:32:01;13.80;99.90
11532;DHT22;5822;51.000;5.874;2022-11-18T14:34:26;13.70;99.90
11532;DHT22;5822;51.000;5.874;2022-11-18T14:36:54;13.70;99.90
11532;DHT22;5822;51.000;5.874;2022-11-18T14:39:27;13.70;99.90
11532;DHT22;5822;51.000;5.874;2022-11-18T14:41:53;13.70;99.90
11532;DHT22;5822;51.000;5.874;2022-11-18T14:44:21;13.80;99.90
11532;DHT22;5822;51.000;5.874;2022-11-18T14:46:50;13.70;99.90
11532;DHT22;5822;51.000;5.874;2022-11-18T14:49:22;13.80;99.90
11532;DHT22;5822;51.000;5.874;2022-11-18T14:51:52;13.80;99.90
11532;DHT22;5822;51.000;5.874;2022-11-18T14:54:19;13.80;99.90
11532;DHT22;5822;51.000;5.874;2022-11-18T14:56:47;13.70;99.90
11532;DHT22;5822;51.000;5.874;2022-11-18T14:59:15;13.70;99.90
11532;DHT22;5822;51.000;5.874;2022-11-18T15:01:41;13.70;99.90
11532;DHT22;5822;51.000;5.874;2022-11-18T15:04:07;13.80;99.90
11532;DHT22;5822;51.000;5.874;2022-11-18T15:06:34;13.80;99.90
11532;DHT22;5822;51.000;5.874;2022-11-18T15:09:00;13.80;99.90
11532;DHT22;5822;51.000;5.874;2022-11-18T15:11:25;13.80;99.90
11532;DHT22;5822;51.000;5.874;2022-11-18T15:13:51;13.70;99.90
11532;DHT22;5822;51.000;5.874;2022-11-18T15:16:25;13.70;99.90
11532;DHT22;5822;51.000;5.874;2022-11-18T15:18:53;13.70;99.90
11532;DHT22;5822;51.000;5.874;2022-11-18T15:21:20;13.70;99.90
11532;DHT22;5822;51.000;5.874;2022-11-18T15:23:46;13.80;99.90
11532;DHT22;5822;51.000;5.874;2022-11-18T15:26:33;13.70;99.90
11532;DHT22;5822;51.000;5.874;2022-11-18T15:28:59;13.60;99.90
11532;DHT22;5822;51.000;5.874;2022-11-18T15:31:25;13.60;99.90
11532;DHT22;5822;51.000;5.874;2022-11-18T15:33:51;13.60;99.90
11532;DHT22;5822;51.000;5.874;2022-11-18T15:36:17;13.60;99.90
11532;DHT22;5822;51.000;5.874;2022-11-18T15:38:44;13.60;99.90
11532;DHT22;5822;51.000;5.874;2022-11-18T15:41:30;13.50;99.90
11532;DHT22;5822;51.000;5.874;2022-11-18T15:43:57;13.60;99.90
11532;DHT22;5822;51.000;5.874;2022-11-18T15:46:25;13.60;99.90
11532;DHT22;5822;51.000;5.874;2022-11-18T15:48:52;13.60;99.90
11532;DHT22;5822;51.000;5.874;2022-11-18T15:51:18;13.50;99.90
11532;DHT22;5822;51.000;5.874;2022-11-18T15:53:44;13.60;99.90
11532;DHT22;5822;51.000;5.874;2022-11-18T15:56:24;13.60;99.90
11532;DHT22;5822;51.000;5.874;2022-11-18T15:58:55;13.60;99.90
11532;DHT22;5822;51.000;5.874;2022-11-18T16:01:22;13.70;99.90
11532;DHT22;5822;51.000;5.874;2022-11-18T16:03:48;13.60;99.90
11532;DHT22;5822;51.000;5.874;2022-11-18T16:06:14;13.60;99.90
11532;DHT22;5822;51.000;5.874;2022-11-18T16:08:39;13.60;99.90
11532;DHT22;5822;51.000;5.874;2022-11-18T16:11:05;13.40;99.90
11532;DHT22;5822;51.000;5.874;2022-11-18T16:13:49;13.30;99.90
11532;DHT22;5822;51.000;5.874;2022-11-18T16:16:22;13.10;99.90
11532;DHT22;5822;51.000;5.874;2022-11-18T16:18:53;13.00;99.90
11532;DHT22;5822;51.000;5.874;2022-11-18T16:21:20;12.90;99.90
11532;DHT22;5822;51.000;5.874;2022-11-18T16:23:46;12.70;99.90
11532;DHT22;5822;51.000;5.874;2022-11-18T16:26:12;12.60;99.90
11532;DHT22;5822;51.000;5.874;2022-11-18T16:28:37;12.60;99.90
11532;DHT22;5822;51.000;5.874;2022-11-18T16:31:05;12.60;99.90
11532;DHT22;5822;51.000;5.874;2022-11-18T16:33:49;12.50;99.90
11532;DHT22;5822;51.000;5.874;2022-11-18T16:36:14;12.50;99.90
11532;DHT22;5822;51.000;5.874;2022-11-18T16:38:40;12.40;99.90
11532;DHT22;5822;51.000;5.874;2022-11-18T16:41:06;12.50;99.90
11532;DHT22;5822;51.000;5.874;2022-11-18T16:43:51;12.50;99.90
11532;DHT22;5822;51.000;5.874;2022-11-18T16:46:17;12.60;99.90
11532;DHT22;5822;51.000;5.874;2022-11-18T16:48:42;12.60;99.90
11532;DHT22;5822;51.000;5.874;2022-11-18T16:51:18;12.60;99.90
11532;DHT22;5822;51.000;5.874;2022-11-18T16:53:51;12.60;99.90
11532;DHT22;5822;51.000;5.874;2022-11-18T16:56:18;12.60;99.90
11532;DHT22;5822;51.000;5.874;2022-11-18T16:58:44;12.50;99.90
11532;DHT22;5822;51.000;5.874;2022-11-18T17:01:10;12.50;99.90
11532;DHT22;5822;51.000;5.874;2022-11-18T17:03:42;12.50;99.90
11532;DHT22;5822;51.000;5.874;2022-11-18T17:06:08;12.50;99.90
11532;DHT22;5822;51.000;5.874;2022-11-18T17:08:35;12.50;99.90
11532;DHT22;5822;51.000;5.874;2022-11-18T17:11:08;12.50;99.90
11532;DHT22;5822;51.000;5.874;2022-11-18T17:13:35;12.50;99.90
11532;DHT22;5822;51.000;5.874;2022-11-18T17:16:09;12.50;99.90
11532;DHT22;5822;51.000;5.874;2022-11-18T17:18:35;12.40;99.90
11532;DHT22;5822;51.000;5.874;2022-11-18T17:21:06;12.40;99.90
11532;DHT22;5822;51.000;5.874;2022-11-18T17:23:33;12.40;99.90
11532;DHT22;5822;51.000;5.874;2022-11-18T17:25:59;12.40;99.90
11532;DHT22;5822;51.000;5.874;2022-11-18T17:28:26;12.30;99.90
11532;DHT22;5822;51.000;5.874;2022-11-18T17:30:52;12.30;99.90
11532;DHT22;5822;51.000;5.874;2022-11-18T17:33:17;12.30;99.90
11532;DHT22;5822;51.000;5.874;2022-11-18T17:35:43;12.30;99.90
11532;DHT22;5822;51.000;5.874;2022-11-18T17:38:09;12.30;99.90
11532;DHT22;5822;51.000;5.874;2022-11-18T17:40:34;12.30;99.90
11532;DHT22;5822;51.000;5.874;2022-11-18T17:43:00;12.30;99.90
11532;DHT22;5822;51.000;5.874;2022-11-18T17:45:25;12.30;99.90
11532;DHT22;5822;51.000;5.874;2022-11-18T17:47:51;12.30;99.90
11532;DHT22;5822;51.000;5.874;2022-11-18T17:50:17;12.30;99.90
11532;DHT22;5822;51.000;5.874;2022-11-18T17:52:42;12.30;99.90
11532;DHT22;5822;51.000;5.874;2022-11-18T17:55:08;12.20;99.90